sensor_id;sensor_type;location;lat;lon;timestamp;P1;durP1;ratioP1;P2;durP2;ratioP2
22780;SDS011;11557;50.884;4.322;2024-03-29T00:00:42;4.00;;;0.95;;
22780;SDS011;11557;50.884;4.322;2024-03-29T00:03:09;2.67;;;0.68;;
22780;SDS011;11557;50.884;4.322;2024-03-29T00:05:35;3.55;;;0.60;;
22780;SDS011;11557;50.884;4.322;2024-03-29T00:08:01;6.20;;;0.77;;
22780;SDS011;11557;50.884;4.322;2024-03-29T00:10:28;3.80;;;0.60;;
22780;SDS011;11557;50.884;4.322;2024-03-29T00:12:54;4.45;;;0.90;;
22780;SDS011;11557;50.884;4.322;2024-03-29T00:15:19;5.55;;;0.77;;
22780;SDS011;11557;50.884;4.322;2024-03-29T00:17:45;4.20;;;0.80;;
22780;SDS011;11557;50.884;4.322;2024-03-29T00:20:11;1.88;;;0.50;;
22780;SDS011;11557;50.884;4.322;2024-03-29T00:22:37;4.63;;;0.60;;
22780;SDS011;11557;50.884;4.322;2024-03-29T00:25:02;5.18;;;0.50;;
22780;SDS011;11557;50.884;4.322;2024-03-29T00:27:28;1.95;;;0.55;;
22780;SDS011;11557;50.884;4.322;2024-03-29T00:29:55;4.07;;;0.82;;
22780;SDS011;11557;50.884;4.322;2024-03-29T00:32:21;2.10;;;0.90;;
22780;SDS011;11557;50.884;4.322;2024-03-29T00:34:51;6.45;;;0.90;;
22780;SDS011;11557;50.884;4.322;2024-03-29T00:37:17;3.45;;;0.88;;
22780;SDS011;11557;50.884;4.322;2024-03-29T00:39:43;2.63;;;0.70;;
22780;SDS011;11557;50.884;4.322;2024-03-29T00:42:10;3.17;;;1.00;;
22780;SDS011;11557;50.884;4.322;2024-03-29T00:44:38;3.40;;;0.73;;
22780;SDS011;11557;50.884;4.322;2024-03-29T00:47:04;5.10;;;0.60;;
22780;SDS011;11557;50.884;4.322;2024-03-29T00:49:30;3.95;;;0.82;;
22780;SDS011;11557;50.884;4.322;2024-03-29T00:51:56;9.63;;;0.90;;
22780;SDS011;11557;50.884;4.322;2024-03-29T00:54:22;4.53;;;0.80;;
22780;SDS011;11557;50.884;4.322;2024-03-29T00:56:50;1.67;;;0.55;;
22780;SDS011;11557;50.884;4.322;2024-03-29T00:59:17;6.75;;;0.80;;
22780;SDS011;11557;50.884;4.322;2024-03-29T01:01:43;3.03;;;0.70;;
22780;SDS011;11557;50.884;4.322;2024-03-29T01:04:09;1.65;;;0.68;;
22780;SDS011;11557;50.884;4.322;2024-03-29T01:06:35;2.38;;;0.68;;
22780;SDS011;11557;50.884;4.322;2024-03-29T01:09:02;2.60;;;0.65;;
22780;SDS011;11557;50.884;4.322;2024-03-29T01:11:28;1.20;;;0.40;;
22780;SDS011;11557;50.884;4.322;2024-03-29T01:13:54;1.15;;;0.40;;
22780;SDS011;11557;50.884;4.322;2024-03-29T01:16:20;3.38;;;0.52;;
22780;SDS011;11557;50.884;4.322;2024-03-29T01:18:45;1.75;;;0.70;;
22780;SDS011;11557;50.884;4.322;2024-03-29T01:21:12;3.90;;;0.65;;
22780;SDS011;11557;50.884;4.322;2024-03-29T01:23:38;3.92;;;0.70;;
22780;SDS011;11557;50.884;4.322;2024-03-29T01:26:04;1.40;;;0.60;;
22780;SDS011;11557;50.884;4.322;2024-03-29T01:28:31;1.48;;;0.60;;
22780;SDS011;11557;50.884;4.322;2024-03-29T01:30:56;5.32;;;0.65;;
22780;SDS011;11557;50.884;4.322;2024-03-29T01:33:23;1.23;;;0.40;;
22780;SDS011;11557;50.884;4.322;2024-03-29T01:35:50;3.78;;;0.50;;
22780;SDS011;11557;50.884;4.322;2024-03-29T01:38:15;2.88;;;0.60;;
22780;SDS011;11557;50.884;4.322;2024-03-29T01:40:41;3.35;;;0.47;;
22780;SDS011;11557;50.884;4.322;2024-03-29T01:43:07;2.22;;;0.50;;
22780;SDS011;11557;50.884;4.322;2024-03-29T01:45:38;4.22;;;0.52;;
22780;SDS011;11557;50.884;4.322;2024-03-29T01:48:08;1.55;;;0.50;;
22780;SDS011;11557;50.884;4.322;2024-03-29T01:50:34;4.95;;;0.63;;
22780;SDS011;11557;50.884;4.322;2024-03-29T01:53:01;0.90;;;0.43;;
22780;SDS011;11557;50.884;4.322;2024-03-29T01:55:28;2.10;;;0.60;;
22780;SDS011;11557;50.884;4.322;2024-03-29T01:57:54;0.75;;;0.30;;
22780;SDS011;11557;50.884;4.322;2024-03-29T02:00:21;2.10;;;0.35;;
22780;SDS011;11557;50.884;4.322;2024-03-29T02:02:48;3.10;;;0.40;;
22780;SDS011;11557;50.884;4.322;2024-03-29T02:05:14;0.52;;;0.25;;
22780;SDS011;11557;50.884;4.322;2024-03-29T02:07:39;0.90;;;0.40;;
22780;SDS011;11557;50.884;4.322;2024-03-29T02:10:08;1.55;;;0.32;;
22780;SDS011;11557;50.884;4.322;2024-03-29T02:12:37;1.77;;;0.60;;
22780;SDS011;11557;50.884;4.322;2024-03-29T02:15:04;0.75;;;0.40;;
22780;SDS011;11557;50.884;4.322;2024-03-29T02:17:30;1.95;;;0.43;;
22780;SDS011;11557;50.884;4.322;2024-03-29T02:19:57;0.68;;;0.30;;
22780;SDS011;11557;50.884;4.322;2024-03-29T02:22:22;0.30;;;0.28;;
22780;SDS011;11557;50.884;4.322;2024-03-29T02:24:50;0.30;;;0.20;;
22780;SDS011;11557;50.884;4.322;2024-03-29T02:27:17;2.03;;;0.30;;
22780;SDS011;11557;50.884;4.322;2024-03-29T02:29:42;0.73;;;0.38;;
22780;SDS011;11557;50.884;4.322;2024-03-29T02:32:08;2.67;;;0.40;;
22780;SDS011;11557;50.884;4.322;2024-03-29T02:34:34;0.65;;;0.30;;
22780;SDS011;11557;50.884;4.322;2024-03-29T02:37:00;1.33;;;0.50;;
22780;SDS011;11557;50.884;4.322;2024-03-29T02:39:26;0.50;;;0.40;;
22780;SDS011;11557;50.884;4.322;2024-03-29T02:41:52;2.65;;;0.70;;
22780;SDS011;11557;50.884;4.322;2024-03-29T02:44:18;5.55;;;0.45;;
22780;SDS011;11557;50.884;4.322;2024-03-29T02:46:43;0.80;;;0.30;;
22780;SDS011;11557;50.884;4.322;2024-03-29T02:49:09;0.47;;;0.47;;
22780;SDS011;11557;50.884;4.322;2024-03-29T02:51:35;1.90;;;0.63;;
22780;SDS011;11557;50.884;4.322;2024-03-29T02:54:01;2.10;;;0.70;;
22780;SDS011;11557;50.884;4.322;2024-03-29T02:56:27;3.97;;;1.00;;
22780;SDS011;11557;50.884;4.322;2024-03-29T02:58:53;3.50;;;0.80;;
22780;SDS011;11557;50.884;4.322;2024-03-29T03:01:19;3.95;;;0.70;;
22780;SDS011;11557;50.884;4.322;2024-03-29T03:03:45;2.72;;;0.70;;
22780;SDS011;11557;50.884;4.322;2024-03-29T03:06:10;2.40;;;1.15;;
22780;SDS011;11557;50.884;4.322;2024-03-29T03:08:36;4.03;;;1.35;;
22780;SDS011;11557;50.884;4.322;2024-03-29T03:11:20;6.73;;;1.20;;
22780;SDS011;11557;50.884;4.322;2024-03-29T03:13:46;6.57;;;1.02;;
22780;SDS011;11557;50.884;4.322;2024-03-29T03:16:11;2.20;;;1.17;;
22780;SDS011;11557;50.884;4.322;2024-03-29T03:18:37;2.83;;;1.08;;
22780;SDS011;11557;50.884;4.322;2024-03-29T03:21:03;1.90;;;1.20;;
22780;SDS011;11557;50.884;4.322;2024-03-29T03:23:28;1.00;;;0.60;;
22780;SDS011;11557;50.884;4.322;2024-03-29T03:25:58;1.23;;;0.90;;
22780;SDS011;11557;50.884;4.322;2024-03-29T03:28:25;2.00;;;0.90;;
22780;SDS011;11557;50.884;4.322;2024-03-29T03:30:52;4.07;;;1.95;;
22780;SDS011;11557;50.884;4.322;2024-03-29T03:33:19;1.20;;;0.60;;
22780;SDS011;11557;50.884;4.322;2024-03-29T03:35:45;3.50;;;0.75;;
22780;SDS011;11557;50.884;4.322;2024-03-29T03:38:11;4.32;;;0.85;;
22780;SDS011;11557;50.884;4.322;2024-03-29T03:40:37;1.40;;;0.75;;
22780;SDS011;11557;50.884;4.322;2024-03-29T03:43:03;2.60;;;0.70;;
22780;SDS011;11557;50.884;4.322;2024-03-29T03:45:37;1.15;;;0.50;;
22780;SDS011;11557;50.884;4.322;2024-03-29T03:48:05;2.22;;;0.98;;
22780;SDS011;11557;50.884;4.322;2024-03-29T03:50:32;1.52;;;0.60;;
22780;SDS011;11557;50.884;4.322;2024-03-29T03:52:58;3.60;;;0.80;;
22780;SDS011;11557;50.884;4.322;2024-03-29T03:55:24;4.65;;;0.88;;
22780;SDS011;11557;50.884;4.322;2024-03-29T03:57:49;1.05;;;0.70;;
22780;SDS011;11557;50.884;4.322;2024-03-29T04:00:17;3.15;;;0.60;;
22780;SDS011;11557;50.884;4.322;2024-03-29T04:02:47;2.80;;;1.00;;
22780;SDS011;11557;50.884;4.322;2024-03-29T04:05:17;3.33;;;0.85;;
22780;SDS011;11557;50.884;4.322;2024-03-29T04:07:46;5.72;;;0.93;;
22780;SDS011;11557;50.884;4.322;2024-03-29T04:10:13;4.50;;;0.90;;
22780;SDS011;11557;50.884;4.322;2024-03-29T04:12:39;2.75;;;0.55;;
22780;SDS011;11557;50.884;4.322;2024-03-29T04:15:05;2.72;;;0.55;;
22780;SDS011;11557;50.884;4.322;2024-03-29T04:17:31;1.10;;;0.52;;
22780;SDS011;11557;50.884;4.322;2024-03-29T04:20:00;5.10;;;0.85;;
22780;SDS011;11557;50.884;4.322;2024-03-29T04:22:29;3.22;;;0.70;;
22780;SDS011;11557;50.884;4.322;2024-03-29T04:24:55;1.50;;;0.47;;
22780;SDS011;11557;50.884;4.322;2024-03-29T04:27:21;1.88;;;0.60;;
22780;SDS011;11557;50.884;4.322;2024-03-29T04:29:50;1.40;;;0.50;;
22780;SDS011;11557;50.884;4.322;2024-03-29T04:32:17;1.17;;;0.43;;
22780;SDS011;11557;50.884;4.322;2024-03-29T04:34:45;1.10;;;0.50;;
22780;SDS011;11557;50.884;4.322;2024-03-29T04:37:12;0.50;;;0.30;;
22780;SDS011;11557;50.884;4.322;2024-03-29T04:39:37;1.30;;;0.43;;
22780;SDS011;11557;50.884;4.322;2024-03-29T04:42:03;0.70;;;0.43;;
22780;SDS011;11557;50.884;4.322;2024-03-29T04:44:29;1.08;;;0.45;;
22780;SDS011;11557;50.884;4.322;2024-03-29T04:46:54;2.05;;;0.40;;
22780;SDS011;11557;50.884;4.322;2024-03-29T04:49:22;1.63;;;0.43;;
22780;SDS011;11557;50.884;4.322;2024-03-29T04:51:58;1.33;;;0.40;;
22780;SDS011;11557;50.884;4.322;2024-03-29T04:54:24;1.88;;;0.77;;
22780;SDS011;11557;50.884;4.322;2024-03-29T04:56:50;0.45;;;0.30;;
22780;SDS011;11557;50.884;4.322;2024-03-29T04:59:16;1.40;;;0.45;;
22780;SDS011;11557;50.884;4.322;2024-03-29T05:01:43;1.40;;;0.52;;
22780;SDS011;11557;50.884;4.322;2024-03-29T05:04:09;0.95;;;0.47;;
22780;SDS011;11557;50.884;4.322;2024-03-29T05:06:36;2.85;;;0.63;;
22780;SDS011;11557;50.884;4.322;2024-03-29T05:09:01;0.70;;;0.40;;
22780;SDS011;11557;50.884;4.322;2024-03-29T05:11:27;1.08;;;0.32;;
22780;SDS011;11557;50.884;4.322;2024-03-29T05:13:53;1.50;;;0.38;;
22780;SDS011;11557;50.884;4.322;2024-03-29T05:16:18;1.00;;;0.30;;
22780;SDS011;11557;50.884;4.322;2024-03-29T05:18:46;1.48;;;0.40;;
22780;SDS011;11557;50.884;4.322;2024-03-29T05:21:12;1.85;;;0.30;;
22780;SDS011;11557;50.884;4.322;2024-03-29T05:23:38;1.42;;;0.57;;
22780;SDS011;11557;50.884;4.322;2024-03-29T05:26:04;2.40;;;0.47;;
22780;SDS011;11557;50.884;4.322;2024-03-29T05:28:29;3.00;;;0.80;;
22780;SDS011;11557;50.884;4.322;2024-03-29T05:30:55;1.98;;;0.93;;
22780;SDS011;11557;50.884;4.322;2024-03-29T05:33:21;1.55;;;0.57;;
22780;SDS011;11557;50.884;4.322;2024-03-29T05:35:47;1.40;;;0.93;;
22780;SDS011;11557;50.884;4.322;2024-03-29T05:38:13;1.13;;;0.50;;
22780;SDS011;11557;50.884;4.322;2024-03-29T05:40:38;1.35;;;0.70;;
22780;SDS011;11557;50.884;4.322;2024-03-29T05:43:04;5.32;;;1.83;;
22780;SDS011;11557;50.884;4.322;2024-03-29T05:45:30;1.75;;;0.88;;
22780;SDS011;11557;50.884;4.322;2024-03-29T05:47:57;2.30;;;0.70;;
22780;SDS011;11557;50.884;4.322;2024-03-29T05:50:23;1.10;;;0.60;;
22780;SDS011;11557;50.884;4.322;2024-03-29T05:52:50;1.35;;;0.60;;
22780;SDS011;11557;50.884;4.322;2024-03-29T05:55:17;2.75;;;0.90;;
22780;SDS011;11557;50.884;4.322;2024-03-29T05:57:43;2.72;;;0.98;;
22780;SDS011;11557;50.884;4.322;2024-03-29T06:00:10;2.10;;;0.80;;
22780;SDS011;11557;50.884;4.322;2024-03-29T06:02:41;2.70;;;0.70;;
22780;SDS011;11557;50.884;4.322;2024-03-29T06:05:09;1.90;;;0.80;;
22780;SDS011;11557;50.884;4.322;2024-03-29T06:07:35;0.93;;;0.47;;
22780;SDS011;11557;50.884;4.322;2024-03-29T06:10:01;0.88;;;0.43;;
22780;SDS011;11557;50.884;4.322;2024-03-29T06:12:31;4.75;;;0.60;;
22780;SDS011;11557;50.884;4.322;2024-03-29T06:14:57;1.00;;;0.60;;
22780;SDS011;11557;50.884;4.322;2024-03-29T06:17:41;1.47;;;0.63;;
22780;SDS011;11557;50.884;4.322;2024-03-29T06:20:07;1.05;;;0.60;;
22780;SDS011;11557;50.884;4.322;2024-03-29T06:22:33;2.42;;;0.70;;
22780;SDS011;11557;50.884;4.322;2024-03-29T06:24:58;1.02;;;0.47;;
22780;SDS011;11557;50.884;4.322;2024-03-29T06:27:29;3.80;;;0.70;;
22780;SDS011;11557;50.884;4.322;2024-03-29T06:29:55;2.45;;;0.80;;
22780;SDS011;11557;50.884;4.322;2024-03-29T06:32:21;1.23;;;0.70;;
22780;SDS011;11557;50.884;4.322;2024-03-29T06:34:46;2.30;;;0.80;;
22780;SDS011;11557;50.884;4.322;2024-03-29T06:37:13;2.22;;;0.75;;
22780;SDS011;11557;50.884;4.322;2024-03-29T06:39:38;1.20;;;0.60;;
22780;SDS011;11557;50.884;4.322;2024-03-29T06:42:04;4.35;;;0.80;;
22780;SDS011;11557;50.884;4.322;2024-03-29T06:44:33;2.15;;;0.82;;
22780;SDS011;11557;50.884;4.322;2024-03-29T06:47:00;1.58;;;0.88;;
22780;SDS011;11557;50.884;4.322;2024-03-29T06:49:25;4.85;;;0.90;;
22780;SDS011;11557;50.884;4.322;2024-03-29T06:51:51;1.92;;;0.80;;
22780;SDS011;11557;50.884;4.322;2024-03-29T06:54:18;3.08;;;0.90;;
22780;SDS011;11557;50.884;4.322;2024-03-29T06:56:47;2.08;;;1.00;;
22780;SDS011;11557;50.884;4.322;2024-03-29T06:59:14;2.05;;;0.95;;
22780;SDS011;11557;50.884;4.322;2024-03-29T07:01:40;2.35;;;1.05;;
22780;SDS011;11557;50.884;4.322;2024-03-29T07:04:06;3.22;;;0.80;;
22780;SDS011;11557;50.884;4.322;2024-03-29T07:06:32;3.58;;;1.05;;
22780;SDS011;11557;50.884;4.322;2024-03-29T07:08:57;2.90;;;1.20;;
22780;SDS011;11557;50.884;4.322;2024-03-29T07:11:23;1.50;;;1.00;;
22780;SDS011;11557;50.884;4.322;2024-03-29T07:13:49;4.85;;;1.52;;
22780;SDS011;11557;50.884;4.322;2024-03-29T07:16:14;6.22;;;1.17;;
22780;SDS011;11557;50.884;4.322;2024-03-29T07:18:40;7.00;;;1.45;;
22780;SDS011;11557;50.884;4.322;2024-03-29T07:21:06;3.67;;;1.67;;
22780;SDS011;11557;50.884;4.322;2024-03-29T07:23:32;2.22;;;0.93;;
22780;SDS011;11557;50.884;4.322;2024-03-29T07:25:58;4.55;;;1.30;;
22780;SDS011;11557;50.884;4.322;2024-03-29T07:28:25;3.88;;;1.25;;
22780;SDS011;11557;50.884;4.322;2024-03-29T07:30:51;4.60;;;1.10;;
22780;SDS011;11557;50.884;4.322;2024-03-29T07:33:18;3.67;;;1.23;;
22780;SDS011;11557;50.884;4.322;2024-03-29T07:35:46;4.00;;;1.67;;
22780;SDS011;11557;50.884;4.322;2024-03-29T07:38:13;6.22;;;2.88;;
22780;SDS011;11557;50.884;4.322;2024-03-29T07:40:42;3.13;;;1.27;;
22780;SDS011;11557;50.884;4.322;2024-03-29T07:43:08;4.68;;;1.80;;
22780;SDS011;11557;50.884;4.322;2024-03-29T07:45:33;4.85;;;1.50;;
22780;SDS011;11557;50.884;4.322;2024-03-29T07:47:59;3.47;;;1.30;;
22780;SDS011;11557;50.884;4.322;2024-03-29T07:50:25;9.10;;;1.70;;
22780;SDS011;11557;50.884;4.322;2024-03-29T07:52:51;2.83;;;1.60;;
22780;SDS011;11557;50.884;4.322;2024-03-29T07:55:16;2.65;;;1.38;;
22780;SDS011;11557;50.884;4.322;2024-03-29T07:57:42;4.85;;;1.90;;
22780;SDS011;11557;50.884;4.322;2024-03-29T08:00:08;5.18;;;1.60;;
22780;SDS011;11557;50.884;4.322;2024-03-29T08:02:35;6.15;;;1.60;;
22780;SDS011;11557;50.884;4.322;2024-03-29T08:05:01;6.07;;;1.65;;
22780;SDS011;11557;50.884;4.322;2024-03-29T08:07:27;4.90;;;1.65;;
22780;SDS011;11557;50.884;4.322;2024-03-29T08:09:53;5.10;;;1.52;;
22780;SDS011;11557;50.884;4.322;2024-03-29T08:12:19;6.22;;;1.60;;
22780;SDS011;11557;50.884;4.322;2024-03-29T08:14:44;4.28;;;1.70;;
22780;SDS011;11557;50.884;4.322;2024-03-29T08:17:11;5.90;;;2.08;;
22780;SDS011;11557;50.884;4.322;2024-03-29T08:19:39;2.63;;;1.50;;
22780;SDS011;11557;50.884;4.322;2024-03-29T08:22:06;2.03;;;1.33;;
22780;SDS011;11557;50.884;4.322;2024-03-29T08:24:33;6.95;;;1.77;;
22780;SDS011;11557;50.884;4.322;2024-03-29T08:26:58;8.68;;;2.17;;
22780;SDS011;11557;50.884;4.322;2024-03-29T08:29:24;5.68;;;1.85;;
22780;SDS011;11557;50.884;4.322;2024-03-29T08:31:50;6.60;;;2.10;;
22780;SDS011;11557;50.884;4.322;2024-03-29T08:34:16;3.88;;;1.77;;
22780;SDS011;11557;50.884;4.322;2024-03-29T08:36:41;5.22;;;2.47;;
22780;SDS011;11557;50.884;4.322;2024-03-29T08:39:07;7.00;;;2.42;;
22780;SDS011;11557;50.884;4.322;2024-03-29T08:41:33;5.82;;;2.00;;
22780;SDS011;11557;50.884;4.322;2024-03-29T08:43:58;4.78;;;2.35;;
22780;SDS011;11557;50.884;4.322;2024-03-29T08:46:24;7.55;;;2.92;;
22780;SDS011;11557;50.884;4.322;2024-03-29T08:48:49;5.82;;;2.70;;
22780;SDS011;11557;50.884;4.322;2024-03-29T08:51:15;6.65;;;3.00;;
22780;SDS011;11557;50.884;4.322;2024-03-29T08:53:41;5.30;;;2.88;;
22780;SDS011;11557;50.884;4.322;2024-03-29T08:56:06;9.73;;;3.60;;
22780;SDS011;11557;50.884;4.322;2024-03-29T08:58:32;6.38;;;3.70;;
22780;SDS011;11557;50.884;4.322;2024-03-29T09:00:58;6.70;;;2.75;;
22780;SDS011;11557;50.884;4.322;2024-03-29T09:03:25;7.70;;;2.95;;
22780;SDS011;11557;50.884;4.322;2024-03-29T09:05:51;4.15;;;2.17;;
22780;SDS011;11557;50.884;4.322;2024-03-29T09:08:17;3.65;;;2.03;;
22780;SDS011;11557;50.884;4.322;2024-03-29T09:10:43;5.05;;;2.15;;
22780;SDS011;11557;50.884;4.322;2024-03-29T09:13:09;5.60;;;2.08;;
22780;SDS011;11557;50.884;4.322;2024-03-29T09:15:35;3.13;;;1.60;;
22780;SDS011;11557;50.884;4.322;2024-03-29T09:18:01;4.90;;;1.40;;
22780;SDS011;11557;50.884;4.322;2024-03-29T09:20:35;4.13;;;2.08;;
22780;SDS011;11557;50.884;4.322;2024-03-29T09:23:01;4.80;;;2.03;;
22780;SDS011;11557;50.884;4.322;2024-03-29T09:25:27;2.33;;;1.30;;
22780;SDS011;11557;50.884;4.322;2024-03-29T09:27:53;4.22;;;2.03;;
22780;SDS011;11557;50.884;4.322;2024-03-29T09:30:18;7.00;;;2.03;;
22780;SDS011;11557;50.884;4.322;2024-03-29T09:32:44;3.20;;;1.88;;
22780;SDS011;11557;50.884;4.322;2024-03-29T09:35:11;3.03;;;1.48;;
22780;SDS011;11557;50.884;4.322;2024-03-29T09:37:36;3.97;;;2.22;;
22780;SDS011;11557;50.884;4.322;2024-03-29T09:40:05;5.65;;;1.98;;
22780;SDS011;11557;50.884;4.322;2024-03-29T09:42:33;3.80;;;1.95;;
22780;SDS011;11557;50.884;4.322;2024-03-29T09:45:04;1.73;;;1.10;;
22780;SDS011;11557;50.884;4.322;2024-03-29T09:47:33;3.38;;;1.10;;
22780;SDS011;11557;50.884;4.322;2024-03-29T09:50:02;2.28;;;0.70;;
22780;SDS011;11557;50.884;4.322;2024-03-29T09:52:32;2.08;;;0.90;;
22780;SDS011;11557;50.884;4.322;2024-03-29T09:54:58;0.88;;;0.60;;
22780;SDS011;11557;50.884;4.322;2024-03-29T09:57:26;0.80;;;0.73;;
22780;SDS011;11557;50.884;4.322;2024-03-29T09:59:58;1.77;;;0.90;;
22780;SDS011;11557;50.884;4.322;2024-03-29T10:02:25;1.63;;;0.85;;
22780;SDS011;11557;50.884;4.322;2024-03-29T10:04:53;1.85;;;0.70;;
22780;SDS011;11557;50.884;4.322;2024-03-29T10:07:20;3.40;;;2.00;;
22780;SDS011;11557;50.884;4.322;2024-03-29T10:09:48;2.60;;;1.08;;
22780;SDS011;11557;50.884;4.322;2024-03-29T10:12:16;1.50;;;1.08;;
22780;SDS011;11557;50.884;4.322;2024-03-29T10:14:51;0.95;;;0.68;;
22780;SDS011;11557;50.884;4.322;2024-03-29T10:17:18;3.10;;;0.80;;
22780;SDS011;11557;50.884;4.322;2024-03-29T10:19:44;2.28;;;0.90;;
22780;SDS011;11557;50.884;4.322;2024-03-29T10:22:11;1.75;;;0.70;;
22780;SDS011;11557;50.884;4.322;2024-03-29T10:24:37;2.08;;;1.00;;
22780;SDS011;11557;50.884;4.322;2024-03-29T10:27:03;1.48;;;1.00;;
22780;SDS011;11557;50.884;4.322;2024-03-29T10:29:29;2.00;;;0.68;;
22780;SDS011;11557;50.884;4.322;2024-03-29T10:31:56;1.17;;;0.60;;
22780;SDS011;11557;50.884;4.322;2024-03-29T10:34:22;1.20;;;0.63;;
22780;SDS011;11557;50.884;4.322;2024-03-29T10:36:49;1.38;;;0.40;;
22780;SDS011;11557;50.884;4.322;2024-03-29T10:39:16;1.35;;;0.60;;
22780;SDS011;11557;50.884;4.322;2024-03-29T10:41:43;1.27;;;0.60;;
22780;SDS011;11557;50.884;4.322;2024-03-29T10:44:12;0.73;;;0.50;;
22780;SDS011;11557;50.884;4.322;2024-03-29T10:46:38;0.80;;;0.40;;
22780;SDS011;11557;50.884;4.322;2024-03-29T10:49:07;0.43;;;0.40;;
22780;SDS011;11557;50.884;4.322;2024-03-29T10:51:36;3.10;;;0.60;;
22780;SDS011;11557;50.884;4.322;2024-03-29T10:54:04;2.47;;;0.60;;
22780;SDS011;11557;50.884;4.322;2024-03-29T10:56:33;0.82;;;0.50;;
22780;SDS011;11557;50.884;4.322;2024-03-29T10:59:01;3.55;;;0.63;;
22780;SDS011;11557;50.884;4.322;2024-03-29T11:01:33;4.05;;;0.70;;
22780;SDS011;11557;50.884;4.322;2024-03-29T11:04:01;1.85;;;0.40;;
22780;SDS011;11557;50.884;4.322;2024-03-29T11:06:35;1.10;;;0.60;;
22780;SDS011;11557;50.884;4.322;2024-03-29T11:09:05;1.30;;;0.57;;
22780;SDS011;11557;50.884;4.322;2024-03-29T11:11:36;3.00;;;0.60;;
22780;SDS011;11557;50.884;4.322;2024-03-29T11:14:08;1.33;;;0.45;;
22780;SDS011;11557;50.884;4.322;2024-03-29T11:16:39;2.15;;;0.55;;
22780;SDS011;11557;50.884;4.322;2024-03-29T11:19:10;1.35;;;0.60;;
22780;SDS011;11557;50.884;4.322;2024-03-29T11:21:38;1.30;;;0.70;;
22780;SDS011;11557;50.884;4.322;2024-03-29T11:24:04;1.55;;;0.40;;
22780;SDS011;11557;50.884;4.322;2024-03-29T11:26:30;0.98;;;0.60;;
22780;SDS011;11557;50.884;4.322;2024-03-29T11:28:56;0.88;;;0.40;;
22780;SDS011;11557;50.884;4.322;2024-03-29T11:31:24;2.22;;;0.73;;
22780;SDS011;11557;50.884;4.322;2024-03-29T11:33:50;2.15;;;0.45;;
22780;SDS011;11557;50.884;4.322;2024-03-29T11:36:17;0.70;;;0.50;;
22780;SDS011;11557;50.884;4.322;2024-03-29T11:38:46;0.90;;;0.40;;
22780;SDS011;11557;50.884;4.322;2024-03-29T11:41:18;3.50;;;0.55;;
22780;SDS011;11557;50.884;4.322;2024-03-29T11:43:48;1.48;;;0.40;;
22780;SDS011;11557;50.884;4.322;2024-03-29T11:46:16;0.80;;;0.52;;
22780;SDS011;11557;50.884;4.322;2024-03-29T11:48:42;0.52;;;0.50;;
22780;SDS011;11557;50.884;4.322;2024-03-29T11:51:11;1.40;;;0.60;;
22780;SDS011;11557;50.884;4.322;2024-03-29T11:53:40;0.50;;;0.50;;
22780;SDS011;11557;50.884;4.322;2024-03-29T11:56:06;0.55;;;0.40;;
22780;SDS011;11557;50.884;4.322;2024-03-29T11:58:32;0.90;;;0.50;;
22780;SDS011;11557;50.884;4.322;2024-03-29T12:00:59;1.13;;;0.57;;
22780;SDS011;11557;50.884;4.322;2024-03-29T12:03:26;1.40;;;0.20;;
22780;SDS011;11557;50.884;4.322;2024-03-29T12:05:54;0.88;;;0.38;;
22780;SDS011;11557;50.884;4.322;2024-03-29T12:08:23;1.10;;;0.45;;
22780;SDS011;11557;50.884;4.322;2024-03-29T12:10:51;0.98;;;0.47;;
22780;SDS011;11557;50.884;4.322;2024-03-29T12:13:17;2.15;;;0.80;;
22780;SDS011;11557;50.884;4.322;2024-03-29T12:15:43;2.00;;;0.60;;
22780;SDS011;11557;50.884;4.322;2024-03-29T12:18:09;6.00;;;0.70;;
22780;SDS011;11557;50.884;4.322;2024-03-29T12:20:35;4.13;;;1.15;;
22780;SDS011;11557;50.884;4.322;2024-03-29T12:23:05;3.30;;;0.80;;
22780;SDS011;11557;50.884;4.322;2024-03-29T12:28:04;1.38;;;0.32;;
22780;SDS011;11557;50.884;4.322;2024-03-29T12:30:31;1.38;;;0.50;;
22780;SDS011;11557;50.884;4.322;2024-03-29T12:33:07;3.10;;;0.60;;
22780;SDS011;11557;50.884;4.322;2024-03-29T12:35:33;1.58;;;0.50;;
22780;SDS011;11557;50.884;4.322;2024-03-29T12:38:00;4.03;;;0.50;;
22780;SDS011;11557;50.884;4.322;2024-03-29T12:40:28;0.50;;;0.40;;
22780;SDS011;11557;50.884;4.322;2024-03-29T12:42:57;1.58;;;0.38;;
22780;SDS011;11557;50.884;4.322;2024-03-29T12:45:23;2.92;;;0.55;;
22780;SDS011;11557;50.884;4.322;2024-03-29T12:47:51;2.03;;;0.50;;
22780;SDS011;11557;50.884;4.322;2024-03-29T12:50:25;1.88;;;0.43;;
22780;SDS011;11557;50.884;4.322;2024-03-29T12:55:18;1.75;;;0.50;;
22780;SDS011;11557;50.884;4.322;2024-03-29T12:57:44;1.70;;;0.50;;
22780;SDS011;11557;50.884;4.322;2024-03-29T13:00:12;3.40;;;0.40;;
22780;SDS011;11557;50.884;4.322;2024-03-29T13:02:38;2.90;;;0.45;;
22780;SDS011;11557;50.884;4.322;2024-03-29T13:05:04;3.72;;;1.23;;
22780;SDS011;11557;50.884;4.322;2024-03-29T13:07:30;1.23;;;0.30;;
22780;SDS011;11557;50.884;4.322;2024-03-29T13:09:56;0.75;;;0.30;;
22780;SDS011;11557;50.884;4.322;2024-03-29T13:12:30;2.35;;;0.38;;
22780;SDS011;11557;50.884;4.322;2024-03-29T13:14:56;0.45;;;0.30;;
22780;SDS011;11557;50.884;4.322;2024-03-29T13:17:29;1.40;;;0.70;;
22780;SDS011;11557;50.884;4.322;2024-03-29T13:19:55;2.00;;;0.80;;
22780;SDS011;11557;50.884;4.322;2024-03-29T13:22:20;1.35;;;0.60;;
22780;SDS011;11557;50.884;4.322;2024-03-29T13:24:46;3.22;;;0.50;;
22780;SDS011;11557;50.884;4.322;2024-03-29T13:27:12;2.63;;;0.55;;
22780;SDS011;11557;50.884;4.322;2024-03-29T13:29:38;0.98;;;0.55;;
22780;SDS011;11557;50.884;4.322;2024-03-29T13:32:04;1.88;;;0.73;;
22780;SDS011;11557;50.884;4.322;2024-03-29T13:34:30;1.95;;;0.50;;
22780;SDS011;11557;50.884;4.322;2024-03-29T13:36:56;1.55;;;0.60;;
22780;SDS011;11557;50.884;4.322;2024-03-29T13:39:21;4.13;;;0.55;;
22780;SDS011;11557;50.884;4.322;2024-03-29T13:41:48;2.65;;;0.60;;
22780;SDS011;11557;50.884;4.322;2024-03-29T13:44:14;0.95;;;0.47;;
22780;SDS011;11557;50.884;4.322;2024-03-29T13:46:43;2.75;;;0.60;;
22780;SDS011;11557;50.884;4.322;2024-03-29T13:49:08;1.48;;;0.50;;
22780;SDS011;11557;50.884;4.322;2024-03-29T13:51:35;1.45;;;0.50;;
22780;SDS011;11557;50.884;4.322;2024-03-29T13:54:00;2.75;;;0.50;;
22780;SDS011;11557;50.884;4.322;2024-03-29T13:56:26;0.52;;;0.30;;
22780;SDS011;11557;50.884;4.322;2024-03-29T13:58:52;1.98;;;0.32;;
22780;SDS011;11557;50.884;4.322;2024-03-29T14:01:18;1.30;;;0.38;;
22780;SDS011;11557;50.884;4.322;2024-03-29T14:03:44;0.75;;;0.40;;
22780;SDS011;11557;50.884;4.322;2024-03-29T14:06:10;1.17;;;0.40;;
22780;SDS011;11557;50.884;4.322;2024-03-29T14:08:36;0.30;;;0.30;;
22780;SDS011;11557;50.884;4.322;2024-03-29T14:11:02;5.15;;;1.30;;
22780;SDS011;11557;50.884;4.322;2024-03-29T14:13:27;0.88;;;0.43;;
22780;SDS011;11557;50.884;4.322;2024-03-29T14:15:54;0.88;;;0.50;;
22780;SDS011;11557;50.884;4.322;2024-03-29T14:18:20;0.80;;;0.55;;
22780;SDS011;11557;50.884;4.322;2024-03-29T14:20:46;0.80;;;0.40;;
22780;SDS011;11557;50.884;4.322;2024-03-29T14:23:12;1.13;;;0.40;;
22780;SDS011;11557;50.884;4.322;2024-03-29T14:25:41;1.35;;;0.52;;
22780;SDS011;11557;50.884;4.322;2024-03-29T14:28:07;2.30;;;0.52;;
22780;SDS011;11557;50.884;4.322;2024-03-29T14:30:34;1.58;;;0.50;;
22780;SDS011;11557;50.884;4.322;2024-03-29T14:32:59;0.70;;;0.50;;
22780;SDS011;11557;50.884;4.322;2024-03-29T14:35:31;2.72;;;0.65;;
22780;SDS011;11557;50.884;4.322;2024-03-29T14:37:57;5.50;;;1.00;;
22780;SDS011;11557;50.884;4.322;2024-03-29T14:40:24;1.38;;;0.60;;
22780;SDS011;11557;50.884;4.322;2024-03-29T14:42:51;3.13;;;0.60;;
22780;SDS011;11557;50.884;4.322;2024-03-29T14:45:19;2.60;;;0.40;;
22780;SDS011;11557;50.884;4.322;2024-03-29T14:47:45;1.30;;;0.40;;
22780;SDS011;11557;50.884;4.322;2024-03-29T14:50:10;1.00;;;0.38;;